Time,TemperatureF,DewpointF,PressureIn,WindDirection,WindDirectionDegrees,WindSpeedMPH,WindSpeedGustMPH,Humidity,HourlyPrecipIn,Conditions,Clouds,dailyrainin,SoftwareType,DateUTC
2013-02-18 00:00:00,37.9,20.5,30.27,NNE,24,0.0,0.0,49,0.00,CLR,,0.00,WeatherDisplay:10.37,2013-02-18 05:00:00,
2013-02-18 00:01:00,37.9,20.9,30.27,NNE,24,0.0,0.0,50,0.00,CLR,,0.00,WeatherDisplay:10.37,2013-02-18 05:01:00,
2013-02-18 00:05:00,37.9,20.9,30.27,NNE,24,0.0,0.0,50,0.00,CLR,,0.00,WeatherDisplay:10.37,2013-02-18 05:05:00,
2013-02-18 00:10:00,37.9,20.9,30.27,NNE,25,0.0,0.0,50,0.00,CLR,,0.00,WeatherDisplay:10.37,2013-02-18 05:10:00,
2013-02-18 00:16:00,37.9,20.9,30.27,NNE,25,0.0,0.0,50,0.00,CLR,,0.00,WeatherDisplay:10.37,2013-02-18 05:16:00,
2013-02-18 00:21:00,37.9,20.9,30.27,NNE,25,0.0,0.0,50,0.00,CLR,,0.00,WeatherDisplay:10.37,2013-02-18 05:21:00,
2013-02-18 00:31:00,37.6,20.6,30.27,NNE,25,0.0,0.0,50,0.00,CLR,,0.00,WeatherDisplay:10.37,2013-02-18 05:31:00,
2013-02-18 00:36:00,37.4,20.4,30.27,NNE,24,0.0,0.0,50,0.00,CLR,,0.00,WeatherDisplay:10.37,2013-02-18 05:36:00,
2013-02-18 00:46:00,37.0,20.6,30.27,NNE,24,0.0,0.0,51,0.00,CLR,,0.00,WeatherDisplay:10.37,2013-02-18 05:46:00,
2013-02-18 00:50:00,37.0,20.6,30.27,NNE,24,0.0,0.0,51,0.00,CLR,,0.00,WeatherDisplay:10.37,2013-02-18 05:50:00,
2013-02-18 00:52:00,36.9,20.4,30.27,NNE,24,0.0,0.0,51,0.00,CLR,,0.00,WeatherDisplay:10.37,2013-02-18 05:52:00,
2013-02-18 01:00:00,36.9,20.9,30.27,NNE,24,0.0,0.0,52,0.00,CLR,,0.00,WeatherDisplay:10.37,2013-02-18 06:00:00,
2013-02-18 01:01:00,36.9,20.9,30.27,NNE,24,0.0,0.0,52,0.00,CLR,,0.00,WeatherDisplay:10.37,2013-02-18 06:01:00,
2013-02-18 01:05:00,36.9,20.9,30.27,NNE,24,0.0,0.0,52,0.00,CLR,,0.00,WeatherDisplay:10.37,2013-02-18 06:05:00,
2013-02-18 01:10:00,36.9,20.9,30.27,NNE,25,0.0,0.0,52,0.00,CLR,,0.00,WeatherDisplay:10.37,2013-02-18 06:10:00,
2013-02-18 01:16:00,37.0,21.0,30.27,NNE,24,0.0,0.0,52,0.00,CLR,,0.00,WeatherDisplay:10.37,2013-02-18 06:16:00,
2013-02-18 01:21:00,37.0,21.5,30.27,NNE,24,0.0,0.0,53,0.00,CLR,,0.00,WeatherDisplay:10.37,2013-02-18 06:21:00,
2013-02-18 01:31:00,37.0,21.5,30.27,NNE,25,0.0,0.0,53,0.00,CLR,,0.00,WeatherDisplay:10.37,2013-02-18 06:31:00,
2013-02-18 01:36:00,37.2,22.1,30.27,NNE,25,0.0,0.0,54,0.00,CLR,,0.00,WeatherDisplay:10.37,2013-02-18 06:36:00,
2013-02-18 01:46:00,37.0,21.9,30.27,NNE,25,0.0,0.0,54,0.00,CLR,,0.00,WeatherDisplay:10.37,2013-02-18 06:46:00,
2013-02-18 01:51:00,37.0,21.9,30.27,NNE,25,0.0,0.0,54,0.00,CLR,,0.00,WeatherDisplay:10.37,2013-02-18 06:51:00,
2013-02-18 02:00:00,37.2,22.5,30.27,NNE,25,0.0,0.0,55,0.00,CLR,,0.00,WeatherDisplay:10.37,2013-02-18 07:00:00,
2013-02-18 02:01:00,37.4,22.7,30.27,NNE,23,0.0,0.0,55,0.00,CLR,,0.00,WeatherDisplay:10.37,2013-02-18 07:01:00,
2013-02-18 02:05:00,37.2,22.5,30.27,NE,47,0.0,0.0,55,0.00,CLR,,0.00,WeatherDisplay:10.37,2013-02-18 07:05:00,
2013-02-18 02:10:00,37.4,22.7,30.27,NNE,25,0.0,0.0,55,0.00,CLR,,0.00,WeatherDisplay:10.37,2013-02-18 07:10:00,
2013-02-18 02:16:00,37.8,23.5,30.27,NE,55,0.0,0.0,56,0.00,CLR,,0.00,WeatherDisplay:10.37,2013-02-18 07:16:00,
2013-02-18 02:21:00,38.1,24.2,30.27,SE,131,0.0,0.0,57,0.00,CLR,,0.00,WeatherDisplay:10.37,2013-02-18 07:21:00,
2013-02-18 02:31:00,39.6,26.4,30.25,NNE,33,2.3,0.0,59,0.00,CLR,,0.00,WeatherDisplay:10.37,2013-02-18 07:31:00,
2013-02-18 02:36:00,40.1,26.9,30.25,East,93,0.0,0.0,59,0.00,CLR,,0.00,WeatherDisplay:10.37,2013-02-18 07:36:00,
2013-02-18 02:46:00,40.6,26.6,30.27,East,90,0.0,0.0,57,0.00,CLR,,0.00,WeatherDisplay:10.37,2013-02-18 07:46:00,
2013-02-18 02:51:00,40.6,26.2,30.27,ENE,78,0.0,0.0,56,0.00,CLR,,0.00,WeatherDisplay:10.37,2013-02-18 07:51:00,
2013-02-18 03:00:00,40.8,25.4,30.27,ESE,114,0.0,0.0,54,0.00,CLR,,0.00,WeatherDisplay:10.37,2013-02-18 08:00:00,
2013-02-18 03:01:00,40.8,25.0,30.27,NNW,335,0.0,0.0,53,0.00,CLR,,0.00,WeatherDisplay:10.37,2013-02-18 08:01:00,
2013-02-18 03:05:00,40.8,25.4,30.27,NNW,339,2.3,0.0,54,0.00,CLR,,0.00,WeatherDisplay:10.37,2013-02-18 08:05:00,
2013-02-18 03:10:00,40.8,25.0,30.27,NNW,335,0.0,0.0,53,0.00,CLR,,0.00,WeatherDisplay:10.37,2013-02-18 08:10:00,
2013-02-18 03:16:00,40.8,25.0,30.27,NE,49,0.0,0.0,53,0.00,CLR,,0.00,WeatherDisplay:10.37,2013-02-18 08:16:00,
2013-02-18 03:21:00,40.6,24.8,30.27,ENE,59,0.0,0.0,53,0.00,CLR,,0.00,WeatherDisplay:10.37,2013-02-18 08:21:00,
2013-02-18 03:31:00,40.6,24.4,30.25,SE,139,0.0,0.0,52,0.00,CLR,,0.00,WeatherDisplay:10.37,2013-02-18 08:31:00,
2013-02-18 03:36:00,40.6,24.4,30.25,SE,130,0.0,0.0,52,0.00,CLR,,0.00,WeatherDisplay:10.37,2013-02-18 08:36:00,
2013-02-18 03:46:00,40.6,24.4,30.25,ESE,116,0.0,0.0,52,0.00,CLR,,0.00,WeatherDisplay:10.37,2013-02-18 08:46:00,
2013-02-18 03:51:00,40.6,24.4,30.25,ESE,119,0.0,0.0,52,0.00,CLR,,0.00,WeatherDisplay:10.37,2013-02-18 08:51:00,
2013-02-18 04:00:00,40.6,24.8,30.27,NE,55,0.0,0.0,53,0.00,CLR,,0.00,WeatherDisplay:10.37,2013-02-18 09:00:00,
2013-02-18 04:01:00,40.6,24.8,30.25,East,82,0.0,0.0,53,0.00,CLR,,0.00,WeatherDisplay:10.37,2013-02-18 09:01:00,
2013-02-18 04:05:00,40.6,24.8,30.27,NW,314,0.0,0.0,53,0.00,CLR,,0.00,WeatherDisplay:10.37,2013-02-18 09:05:00,
2013-02-18 04:10:00,40.6,24.8,30.27,ENE,72,0.0,0.0,53,0.00,CLR,,0.00,WeatherDisplay:10.37,2013-02-18 09:10:00,
2013-02-18 04:16:00,40.6,24.8,30.25,East,84,0.0,0.0,53,0.00,CLR,,0.00,WeatherDisplay:10.37,2013-02-18 09:16:00,
2013-02-18 04:21:00,40.5,24.7,30.25,ESE,110,0.0,0.0,53,0.00,CLR,,0.00,WeatherDisplay:10.37,2013-02-18 09:21:00,
2013-02-18 04:31:00,40.3,24.5,30.25,ESE,103,0.0,0.0,53,0.00,CLR,,0.00,WeatherDisplay:10.37,2013-02-18 09:31:00,
2013-02-18 04:36:00,40.3,24.5,30.25,ESE,119,0.0,0.0,53,0.00,CLR,,0.00,WeatherDisplay:10.37,2013-02-18 09:36:00,
2013-02-18 04:46:00,40.5,24.7,30.25,ESE,116,2.3,0.0,53,0.00,CLR,,0.00,WeatherDisplay:10.37,2013-02-18 09:46:00,
2013-02-18 04:51:00,40.5,24.7,30.25,WSW,258,0.0,0.0,53,0.00,CLR,,0.00,WeatherDisplay:10.37,2013-02-18 09:51:00,
2013-02-18 05:00:00,40.6,24.4,30.25,NW,318,2.3,0.0,52,0.00,CLR,,0.00,WeatherDisplay:10.37,2013-02-18 10:00:00,
2013-02-18 05:01:00,40.5,24.2,30.25,East,92,0.0,0.0,52,0.00,CLR,,0.00,WeatherDisplay:10.37,2013-02-18 10:01:00,
2013-02-18 05:05:00,40.5,24.2,30.25,NE,39,2.3,0.0,52,0.00,CLR,,0.00,WeatherDisplay:10.37,2013-02-18 10:05:00,
2013-02-18 05:10:00,40.5,24.2,30.25,North,357,2.7,0.0,52,0.00,CLR,,0.00,WeatherDisplay:10.37,2013-02-18 10:10:00,
2013-02-18 05:16:00,40.5,23.7,30.25,NE,47,0.0,0.0,51,0.00,CLR,,0.00,WeatherDisplay:10.37,2013-02-18 10:16:00,
2013-02-18 05:21:00,40.5,23.7,30.25,NE,56,0.0,0.0,51,0.00,CLR,,0.00,WeatherDisplay:10.37,2013-02-18 10:21:00,
2013-02-18 05:31:00,40.8,24.1,30.25,West,275,2.3,0.0,51,0.00,CLR,,0.00,WeatherDisplay:10.37,2013-02-18 10:31:00,
2013-02-18 05:36:00,40.8,23.6,30.25,NNW,341,3.4,0.0,50,0.00,CLR,,0.00,WeatherDisplay:10.37,2013-02-18 10:36:00,
2013-02-18 05:46:00,40.8,23.6,30.25,ENE,67,0.0,0.0,50,0.00,CLR,,0.00,WeatherDisplay:10.37,2013-02-18 10:46:00,
2013-02-18 05:51:00,40.5,22.8,30.25,ENE,59,0.0,0.0,49,0.00,CLR,,0.00,WeatherDisplay:10.37,2013-02-18 10:51:00,
2013-02-18 06:00:00,40.3,22.6,30.27,East,87,0.0,0.0,49,0.00,CLR,,0.00,WeatherDisplay:10.37,2013-02-18 11:00:00,
2013-02-18 06:01:00,39.9,22.8,30.27,NE,50,0.0,0.0,50,0.00,CLR,,0.00,WeatherDisplay:10.37,2013-02-18 11:01:00,
2013-02-18 06:05:00,40.1,22.9,30.27,East,92,0.0,0.0,50,0.00,CLR,,0.00,WeatherDisplay:10.37,2013-02-18 11:05:00,
2013-02-18 06:10:00,39.9,22.8,30.27,NE,50,0.0,0.0,50,0.00,CLR,,0.00,WeatherDisplay:10.37,2013-02-18 11:10:00,
2013-02-18 06:16:00,39.7,22.6,30.27,NE,52,0.0,0.0,50,0.00,CLR,,0.00,WeatherDisplay:10.37,2013-02-18 11:16:00,
2013-02-18 06:21:00,39.6,22.4,30.27,ESE,119,0.0,0.0,50,0.00,CLR,,0.00,WeatherDisplay:10.37,2013-02-18 11:21:00,
2013-02-18 06:31:00,39.4,22.3,30.27,SE,142,0.0,0.0,50,0.00,CLR,,0.00,WeatherDisplay:10.37,2013-02-18 11:31:00,
2013-02-18 06:36:00,39.2,22.1,30.27,SE,142,0.0,0.0,50,0.00,CLR,,0.00,WeatherDisplay:10.37,2013-02-18 11:36:00,
2013-02-18 06:46:00,38.7,22.1,30.27,SE,142,0.0,0.0,51,0.00,CLR,,0.00,WeatherDisplay:10.37,2013-02-18 11:46:00,
2013-02-18 06:51:00,38.3,21.7,30.27,SE,142,0.0,0.0,51,0.00,CLR,,0.00,WeatherDisplay:10.37,2013-02-18 11:51:00,
2013-02-18 07:00:00,37.9,21.4,30.27,SE,141,0.0,0.0,51,0.00,CLR,,0.00,WeatherDisplay:10.37,2013-02-18 12:00:00,
2013-02-18 07:01:00,37.6,21.1,30.27,SE,141,0.0,0.0,51,0.00,CLR,,0.00,WeatherDisplay:10.37,2013-02-18 12:01:00,
2013-02-18 07:05:00,37.8,21.2,30.27,SE,141,0.0,0.0,51,0.00,CLR,,0.00,WeatherDisplay:10.37,2013-02-18 12:05:00,
2013-02-18 07:10:00,37.6,21.1,30.27,SE,141,0.0,0.0,51,0.00,CLR,,0.00,WeatherDisplay:10.37,2013-02-18 12:10:00,
2013-02-18 07:16:00,37.4,20.9,30.27,SE,141,0.0,0.0,51,0.00,CLR,,0.00,WeatherDisplay:10.37,2013-02-18 12:16:00,
2013-02-18 07:21:00,37.2,21.2,30.27,SE,142,0.0,0.0,52,0.00,CLR,,0.00,WeatherDisplay:10.37,2013-02-18 12:21:00,
2013-02-18 07:31:00,36.9,20.9,30.25,SE,141,0.0,0.0,52,0.00,CLR,,0.00,WeatherDisplay:10.37,2013-02-18 12:31:00,
2013-02-18 07:36:00,36.9,21.3,30.25,SE,141,0.0,0.0,53,0.00,CLR,,0.00,WeatherDisplay:10.37,2013-02-18 12:36:00,
2013-02-18 07:46:00,36.9,21.7,30.27,SE,141,0.0,0.0,54,0.00,CLR,,0.00,WeatherDisplay:10.37,2013-02-18 12:46:00,
2013-02-18 07:51:00,37.0,21.9,30.27,SE,142,0.0,0.0,54,0.00,CLR,,0.00,WeatherDisplay:10.37,2013-02-18 12:51:00,
2013-02-18 08:00:00,37.8,23.0,30.27,North,357,0.0,0.0,55,0.00,CLR,,0.00,WeatherDisplay:10.37,2013-02-18 13:00:00,
2013-02-18 08:01:00,39.4,25.0,30.31,ESE,117,0.0,0.0,56,0.00,CLR,,0.00,WeatherDisplay:10.37,2013-02-18 13:01:00,
2013-02-18 08:05:00,38.5,23.7,30.27,North,357,0.0,0.0,55,0.00,CLR,,0.00,WeatherDisplay:10.37,2013-02-18 13:05:00,
2013-02-18 08:10:00,39.2,24.8,30.27,ESE,115,0.0,0.0,56,0.00,CLR,,0.00,WeatherDisplay:10.37,2013-02-18 13:10:00,
2013-02-18 08:16:00,40.3,26.2,30.31,ESE,106,0.0,0.0,57,0.00,CLR,,0.00,WeatherDisplay:10.37,2013-02-18 13:16:00,
2013-02-18 08:21:00,41.2,27.5,30.31,NE,51,4.0,4.0,58,0.00,CLR,,0.00,WeatherDisplay:10.37,2013-02-18 13:21:00,
2013-02-18 08:31:00,43.7,29.0,30.31,North,0,3.4,3.4,56,0.00,CLR,,0.00,WeatherDisplay:10.37,2013-02-18 13:31:00,
2013-02-18 08:36:00,44.8,27.7,30.31,North,0,3.4,3.4,51,0.00,CLR,,0.00,WeatherDisplay:10.37,2013-02-18 13:36:00,
2013-02-18 08:46:00,46.4,25.6,30.31,North,353,5.8,5.8,44,0.00,CLR,,0.00,WeatherDisplay:10.37,2013-02-18 13:46:00,
2013-02-18 08:51:00,47.1,23.4,30.31,SE,138,3.4,0.0,39,0.00,CLR,,0.00,WeatherDisplay:10.37,2013-02-18 13:51:00,
2013-02-18 09:00:00,48.0,23.0,30.31,NE,38,6.9,6.9,37,0.00,CLR,,0.00,WeatherDisplay:10.37,2013-02-18 14:00:00,
2013-02-18 09:01:00,49.1,19.7,30.31,WSW,258,3.6,3.6,31,0.00,CLR,,0.00,WeatherDisplay:10.37,2013-02-18 14:01:00,
2013-02-18 09:05:00,48.6,20.7,30.31,East,99,8.1,8.1,33,0.00,CLR,,0.00,WeatherDisplay:10.37,2013-02-18 14:05:00,
2013-02-18 09:10:00,48.9,19.6,30.31,North,353,3.4,3.4,31,0.00,CLR,,0.00,WeatherDisplay:10.37,2013-02-18 14:10:00,
2013-02-18 09:16:00,49.5,19.3,30.31,NNW,329,3.6,3.6,30,0.00,CLR,,0.00,WeatherDisplay:10.37,2013-02-18 14:16:00,
2013-02-18 09:21:00,49.8,18.8,30.31,East,85,4.9,4.9,29,0.00,CLR,,0.00,WeatherDisplay:10.37,2013-02-18 14:21:00,
2013-02-18 09:31:00,50.5,18.6,30.31,North,353,3.4,3.4,28,0.00,CLR,,0.00,WeatherDisplay:10.37,2013-02-18 14:31:00,
2013-02-18 09:36:00,50.9,18.9,30.31,East,89,5.8,5.8,28,0.00,CLR,,0.00,WeatherDisplay:10.37,2013-02-18 14:36:00,
2013-02-18 09:46:00,51.6,19.5,30.31,NNE,23,5.8,5.8,28,0.00,CLR,,0.00,WeatherDisplay:10.37,2013-02-18 14:46:00,
2013-02-18 09:51:00,52.0,19.8,30.31,East,90,3.4,3.4,28,0.00,CLR,,0.00,WeatherDisplay:10.37,2013-02-18 14:51:00,
2013-02-18 10:00:00,52.7,19.6,30.31,NNE,18,3.4,3.4,27,0.00,CLR,,0.00,WeatherDisplay:10.37,2013-02-18 15:00:00,
2013-02-18 10:01:00,53.6,19.5,30.31,East,99,5.8,5.8,26,0.00,CLR,,0.00,WeatherDisplay:10.37,2013-02-18 15:01:00,
2013-02-18 10:05:00,53.1,19.0,30.31,North,6,8.1,8.1,26,0.00,CLR,,0.00,WeatherDisplay:10.37,2013-02-18 15:05:00,
2013-02-18 10:10:00,53.6,19.5,30.31,SSE,159,5.8,5.8,26,0.00,CLR,,0.00,WeatherDisplay:10.37,2013-02-18 15:10:00,
2013-02-18 10:16:00,54.3,20.1,30.31,ENE,76,6.3,0.0,26,0.00,CLR,,0.00,WeatherDisplay:10.37,2013-02-18 15:16:00,
2013-02-18 10:21:00,54.9,20.6,30.31,North,4,3.4,3.6,26,0.00,CLR,,0.00,WeatherDisplay:10.37,2013-02-18 15:21:00,
2013-02-18 10:31:00,55.9,20.6,30.31,East,91,3.4,3.4,25,0.00,CLR,,0.00,WeatherDisplay:10.37,2013-02-18 15:31:00,
2013-02-18 10:36:00,56.5,21.0,30.31,ESE,106,4.6,4.6,25,0.00,CLR,,0.00,WeatherDisplay:10.37,2013-02-18 15:36:00,
2013-02-18 10:46:00,57.4,21.8,30.31,SE,132,8.1,8.1,25,0.00,CLR,,0.00,WeatherDisplay:10.37,2013-02-18 15:46:00,
2013-02-18 10:51:00,57.6,22.0,30.31,SE,134,5.8,5.8,25,0.00,CLR,,0.00,WeatherDisplay:10.37,2013-02-18 15:51:00,
2013-02-18 11:00:00,58.1,22.4,30.31,NNW,335,5.8,5.8,25,0.00,CLR,,0.00,WeatherDisplay:10.37,2013-02-18 16:00:00,
2013-02-18 11:01:00,59.0,23.2,30.31,East,92,8.0,8.0,25,0.00,CLR,,0.00,WeatherDisplay:10.37,2013-02-18 16:01:00,
2013-02-18 11:05:00,58.3,22.6,30.31,SE,128,4.0,4.0,25,0.00,CLR,,0.00,WeatherDisplay:10.37,2013-02-18 16:05:00,
2013-02-18 11:10:00,58.8,23.0,30.31,ESE,120,5.8,5.8,25,0.00,CLR,,0.00,WeatherDisplay:10.37,2013-02-18 16:10:00,
2013-02-18 11:16:00,59.4,23.5,30.31,NE,45,9.2,9.2,25,0.00,CLR,,0.00,WeatherDisplay:10.37,2013-02-18 16:16:00,
2013-02-18 11:21:00,59.9,23.9,30.31,ESE,114,8.1,8.1,25,0.00,CLR,,0.00,WeatherDisplay:10.37,2013-02-18 16:21:00,
2013-02-18 11:31:00,60.4,24.4,30.31,East,85,6.9,6.9,25,0.00,CLR,,0.00,WeatherDisplay:10.37,2013-02-18 16:31:00,
2013-02-18 11:36:00,60.8,24.7,30.31,ENE,75,8.1,8.1,25,0.00,CLR,,0.00,WeatherDisplay:10.37,2013-02-18 16:36:00,
2013-02-18 11:46:00,61.5,25.3,30.31,East,98,8.1,8.1,25,0.00,CLR,,0.00,WeatherDisplay:10.37,2013-02-18 16:46:00,
2013-02-18 11:51:00,61.9,25.6,30.31,ENE,63,8.1,8.1,25,0.00,CLR,,0.00,WeatherDisplay:10.37,2013-02-18 16:51:00,
2013-02-18 12:00:00,62.4,26.1,30.27,ENE,59,5.8,5.8,25,0.00,CLR,,0.00,WeatherDisplay:10.37,2013-02-18 17:00:00,
2013-02-18 12:01:00,63.0,26.6,30.27,East,97,8.1,8.1,25,0.00,CLR,,0.00,WeatherDisplay:10.37,2013-02-18 17:01:00,
2013-02-18 12:05:00,62.8,26.4,30.27,ESE,121,6.3,6.3,25,0.00,CLR,,0.00,WeatherDisplay:10.37,2013-02-18 17:05:00,
2013-02-18 12:10:00,63.0,26.6,30.27,East,93,7.6,7.6,25,0.00,CLR,,0.00,WeatherDisplay:10.37,2013-02-18 17:10:00,
2013-02-18 12:16:00,63.7,27.2,30.27,ESE,113,10.9,10.9,25,0.00,CLR,,0.00,WeatherDisplay:10.37,2013-02-18 17:16:00,
2013-02-18 12:21:00,64.0,27.5,30.27,SE,135,5.8,5.8,25,0.00,CLR,,0.00,WeatherDisplay:10.37,2013-02-18 17:21:00,
2013-02-18 12:31:00,64.8,27.1,30.27,East,88,8.1,8.1,24,0.00,CLR,,0.00,WeatherDisplay:10.37,2013-02-18 17:31:00,
2013-02-18 12:36:00,65.1,28.4,30.27,ESE,105,8.1,8.1,25,0.00,CLR,,0.00,WeatherDisplay:10.37,2013-02-18 17:36:00,
2013-02-18 12:46:00,65.5,28.7,30.25,ESE,103,8.1,8.1,25,0.00,CLR,,0.00,WeatherDisplay:10.37,2013-02-18 17:46:00,
2013-02-18 12:51:00,65.7,28.8,30.25,East,100,9.2,9.2,25,0.00,CLR,,0.00,WeatherDisplay:10.37,2013-02-18 17:51:00,
2013-02-18 13:00:00,66.4,28.5,30.25,ESE,114,8.1,8.1,24,0.00,CLR,,0.00,WeatherDisplay:10.37,2013-02-18 18:00:00,
2013-02-18 13:01:00,67.1,29.1,30.25,East,90,8.1,8.1,24,0.00,CLR,,0.00,WeatherDisplay:10.37,2013-02-18 18:01:00,
2013-02-18 13:05:00,66.7,28.8,30.25,ENE,61,5.8,5.8,24,0.00,CLR,,0.00,WeatherDisplay:10.37,2013-02-18 18:05:00,
2013-02-18 13:10:00,67.1,29.1,30.25,ESE,116,4.6,4.6,24,0.00,CLR,,0.00,WeatherDisplay:10.37,2013-02-18 18:10:00,
2013-02-18 13:16:00,67.6,29.5,30.25,East,83,8.3,8.3,24,0.00,CLR,,0.00,WeatherDisplay:10.37,2013-02-18 18:16:00,
2013-02-18 13:21:00,67.8,29.7,30.25,ESE,104,10.3,10.3,24,0.00,CLR,,0.00,WeatherDisplay:10.37,2013-02-18 18:21:00,
2013-02-18 13:31:00,68.2,30.0,30.25,NNE,19,5.8,5.8,24,0.00,CLR,,0.00,WeatherDisplay:10.37,2013-02-18 18:31:00,
2013-02-18 13:36:00,68.5,30.3,30.25,South,170,8.1,8.1,24,0.00,CLR,,0.00,WeatherDisplay:10.37,2013-02-18 18:36:00,
2013-02-18 13:46:00,69.3,29.8,30.22,ESE,108,11.5,11.5,23,0.00,CLR,,0.00,WeatherDisplay:10.37,2013-02-18 18:46:00,
2013-02-18 13:51:00,69.3,30.9,30.22,ESE,116,10.1,10.1,24,0.00,CLR,,0.00,WeatherDisplay:10.37,2013-02-18 18:51:00,
2013-02-18 14:00:00,70.0,30.5,30.22,East,87,5.8,5.8,23,0.00,CLR,,0.00,WeatherDisplay:10.37,2013-02-18 19:00:00,
2013-02-18 14:01:00,70.7,31.1,30.22,SE,126,8.1,8.1,23,0.00,CLR,,0.00,WeatherDisplay:10.37,2013-02-18 19:01:00,
2013-02-18 14:05:00,70.3,30.8,30.22,ENE,65,8.1,8.1,23,0.00,CLR,,0.00,WeatherDisplay:10.37,2013-02-18 19:05:00,
2013-02-18 14:10:00,70.7,31.1,30.22,East,87,8.3,8.3,23,0.00,CLR,,0.00,WeatherDisplay:10.37,2013-02-18 19:10:00,
2013-02-18 14:16:00,71.1,31.4,30.22,ENE,58,5.8,5.8,23,0.00,CLR,,0.00,WeatherDisplay:10.37,2013-02-18 19:16:00,
2013-02-18 14:21:00,71.2,31.5,30.22,ESE,120,5.8,5.8,23,0.00,CLR,,0.00,WeatherDisplay:10.37,2013-02-18 19:21:00,
2013-02-18 14:31:00,71.8,30.9,30.22,ESE,102,11.5,11.5,22,0.00,CLR,,0.00,WeatherDisplay:10.37,2013-02-18 19:31:00,
2013-02-18 14:36:00,71.4,31.7,30.22,ESE,123,8.1,8.1,23,0.00,CLR,,0.00,WeatherDisplay:10.37,2013-02-18 19:36:00,
2013-02-18 14:46:00,71.6,30.7,30.22,East,81,5.8,5.8,22,0.00,CLR,,0.00,WeatherDisplay:10.37,2013-02-18 19:46:00,
2013-02-18 14:51:00,72.1,31.2,30.22,ENE,76,5.8,5.8,22,0.00,CLR,,0.00,WeatherDisplay:10.37,2013-02-18 19:51:00,
2013-02-18 15:00:00,72.7,32.7,30.22,SE,136,6.3,6.3,23,0.00,CLR,,0.00,WeatherDisplay:10.37,2013-02-18 20:00:00,
2013-02-18 15:01:00,72.5,31.5,30.22,ENE,78,11.5,11.5,22,0.00,CLR,,0.00,WeatherDisplay:10.37,2013-02-18 20:01:00,
2013-02-18 15:05:00,72.7,31.6,30.22,ESE,102,5.8,5.8,22,0.00,CLR,,0.00,WeatherDisplay:10.37,2013-02-18 20:05:00,
2013-02-18 15:11:00,72.5,31.5,30.22,East,96,11.5,11.5,22,0.00,CLR,,0.00,WeatherDisplay:10.37,2013-02-18 20:11:00,
2013-02-18 15:16:00,72.7,31.6,30.22,SE,129,8.1,8.1,22,0.00,CLR,,0.00,WeatherDisplay:10.37,2013-02-18 20:16:00,
2013-02-18 15:21:00,72.5,31.5,30.22,SE,124,6.3,6.3,22,0.00,CLR,,0.00,WeatherDisplay:10.37,2013-02-18 20:21:00,
2013-02-18 15:31:00,72.1,31.2,30.22,SSE,167,11.5,11.5,22,0.00,CLR,,0.00,WeatherDisplay:10.37,2013-02-18 20:31:00,
2013-02-18 15:36:00,72.5,31.5,30.22,SE,136,6.3,6.3,22,0.00,CLR,,0.00,WeatherDisplay:10.37,2013-02-18 20:36:00,
2013-02-18 15:46:00,72.3,31.3,30.22,ESE,114,8.1,8.1,22,0.00,CLR,,0.00,WeatherDisplay:10.37,2013-02-18 20:46:00,
2013-02-18 15:51:00,72.5,31.5,30.22,South,173,8.1,8.1,22,0.00,CLR,,0.00,WeatherDisplay:10.37,2013-02-18 20:51:00,
2013-02-18 16:00:00,72.3,31.3,30.22,SE,126,5.8,5.8,22,0.00,CLR,,0.00,WeatherDisplay:10.37,2013-02-18 21:00:00,
2013-02-18 16:01:00,73.9,32.7,30.22,ESE,119,5.8,5.8,22,0.00,FEW,,0.00,WeatherDisplay:10.37,2013-02-18 21:01:00,
2013-02-18 16:05:00,72.9,31.8,30.22,ESE,120,8.1,8.1,22,0.00,FEW,,0.00,WeatherDisplay:10.37,2013-02-18 21:05:00,
2013-02-18 16:10:00,73.8,32.5,30.22,ESE,104,5.8,5.8,22,0.00,FEW,,0.00,WeatherDisplay:10.37,2013-02-18 21:10:00,
2013-02-18 16:16:00,73.2,32.1,30.22,East,79,5.8,5.8,22,0.00,FEW,,0.00,WeatherDisplay:10.37,2013-02-18 21:16:00,
2013-02-18 16:21:00,71.8,30.9,30.22,SE,142,6.3,6.3,22,0.00,FEW,,0.00,WeatherDisplay:10.37,2013-02-18 21:21:00,
2013-02-18 16:31:00,70.0,30.5,30.22,East,88,5.8,5.8,23,0.00,FEW,,0.00,WeatherDisplay:10.37,2013-02-18 21:31:00,
2013-02-18 16:36:00,69.8,30.3,30.22,East,82,8.1,8.1,23,0.00,FEW,,0.00,WeatherDisplay:10.37,2013-02-18 21:36:00,
2013-02-18 16:46:00,68.7,29.4,30.22,SE,124,2.7,0.0,23,0.00,FEW,,0.00,WeatherDisplay:10.37,2013-02-18 21:46:00,
2013-02-18 16:51:00,68.2,28.9,30.22,SSW,210,3.4,3.4,23,0.00,FEW,,0.00,WeatherDisplay:10.37,2013-02-18 21:51:00,
2013-02-18 17:00:00,67.5,29.4,30.22,ESE,107,6.3,6.3,24,0.00,FEW,,0.00,WeatherDisplay:10.37,2013-02-18 22:00:00,
2013-02-18 17:01:00,69.3,30.9,30.22,SE,137,2.3,0.0,24,0.00,CLR,,0.00,WeatherDisplay:10.37,2013-02-18 22:01:00,
2013-02-18 17:05:00,67.8,29.7,30.22,ESE,106,4.6,4.6,24,0.00,CLR,,0.00,WeatherDisplay:10.37,2013-02-18 22:05:00,
2013-02-18 17:10:00,69.1,30.7,30.22,SSE,152,2.3,2.3,24,0.00,CLR,,0.00,WeatherDisplay:10.37,2013-02-18 22:10:00,
2013-02-18 17:16:00,70.7,31.1,30.22,East,101,4.6,4.6,23,0.00,CLR,,0.00,WeatherDisplay:10.37,2013-02-18 22:16:00,
2013-02-18 17:21:00,71.2,31.5,30.22,SE,130,5.8,5.8,23,0.00,CLR,,0.00,WeatherDisplay:10.37,2013-02-18 22:21:00,
2013-02-18 17:31:00,71.2,31.5,30.22,SE,129,3.4,3.4,23,0.00,CLR,,0.00,WeatherDisplay:10.37,2013-02-18 22:31:00,
2013-02-18 17:36:00,70.9,31.2,30.22,ESE,102,5.8,5.8,23,0.00,CLR,,0.00,WeatherDisplay:10.37,2013-02-18 22:36:00,
2013-02-18 17:46:00,69.1,29.7,30.22,ESE,106,3.4,3.4,23,0.00,CLR,,0.00,WeatherDisplay:10.37,2013-02-18 22:46:00,
2013-02-18 17:51:00,68.4,29.1,30.22,ESE,112,5.8,5.8,23,0.00,CLR,,0.00,WeatherDisplay:10.37,2013-02-18 22:51:00,
2013-02-18 18:00:00,66.9,28.9,30.22,ESE,117,2.2,0.0,24,0.00,CLR,,0.00,WeatherDisplay:10.37,2013-02-18 23:00:00,
2013-02-18 18:01:00,66.2,28.3,30.22,ESE,119,2.3,0.0,24,0.00,CLR,,0.00,WeatherDisplay:10.37,2013-02-18 23:01:00,
2013-02-18 18:05:00,66.6,28.6,30.22,ESE,117,2.3,0.0,24,0.00,CLR,,0.00,WeatherDisplay:10.37,2013-02-18 23:05:00,
2013-02-18 18:10:00,66.2,28.3,30.22,ESE,119,3.4,0.0,24,0.00,CLR,,0.00,WeatherDisplay:10.37,2013-02-18 23:10:00,
2013-02-18 18:16:00,65.7,28.8,30.22,ESE,103,2.3,2.3,25,0.00,CLR,,0.00,WeatherDisplay:10.37,2013-02-18 23:16:00,
2013-02-18 18:21:00,65.3,28.5,30.22,ESE,113,2.7,2.7,25,0.00,CLR,,0.00,WeatherDisplay:10.37,2013-02-18 23:21:00,
2013-02-18 18:31:00,64.4,28.7,30.22,ESE,123,0.0,0.0,26,0.00,CLR,,0.00,WeatherDisplay:10.37,2013-02-18 23:31:00,
2013-02-18 18:36:00,63.9,29.2,30.22,SE,143,0.0,0.0,27,0.00,CLR,,0.00,WeatherDisplay:10.37,2013-02-18 23:36:00,
2013-02-18 18:46:00,62.8,31.7,30.19,SSE,166,3.4,3.4,31,0.00,CLR,,0.00,WeatherDisplay:10.37,2013-02-18 23:46:00,
2013-02-18 18:51:00,62.1,33.3,30.19,SW,230,3.4,3.4,34,0.00,CLR,,0.00,WeatherDisplay:10.37,2013-02-18 23:51:00,
2013-02-18 19:00:00,61.5,34.3,30.19,WNW,286,3.4,3.4,36,0.00,CLR,,0.00,WeatherDisplay:10.37,2013-02-19 00:00:00,
2013-02-18 19:01:00,61.0,33.8,30.19,SSE,147,0.0,0.0,36,0.00,FEW,,0.00,WeatherDisplay:10.37,2013-02-19 00:01:00,
2013-02-18 19:05:00,61.3,34.1,30.19,SE,128,2.7,0.0,36,0.00,FEW,,0.00,WeatherDisplay:10.37,2013-02-19 00:05:00,
2013-02-18 19:10:00,61.0,33.8,30.19,SSE,147,0.0,0.0,36,0.00,FEW,,0.00,WeatherDisplay:10.37,2013-02-19 00:10:00,
2013-02-18 19:16:00,60.4,34.7,30.19,West,265,0.0,0.0,38,0.00,FEW,,0.00,WeatherDisplay:10.37,2013-02-19 00:16:00,
2013-02-18 19:21:00,60.3,35.2,30.19,West,273,2.7,0.0,39,0.00,FEW,,0.00,WeatherDisplay:10.37,2013-02-19 00:21:00,
2013-02-18 19:31:00,59.5,35.8,30.19,WNW,282,0.0,0.0,41,0.00,FEW,,0.00,WeatherDisplay:10.37,2013-02-19 00:31:00,
2013-02-18 19:36:00,59.4,35.6,30.19,WNW,282,0.0,0.0,41,0.00,FEW,,0.00,WeatherDisplay:10.37,2013-02-19 00:36:00,
2013-02-18 19:46:00,58.8,35.2,30.22,WNW,282,0.0,0.0,41,0.00,FEW,,0.00,WeatherDisplay:10.37,2013-02-19 00:46:00,
2013-02-18 19:52:00,58.6,35.6,30.22,WSW,257,0.0,0.0,42,0.00,FEW,,0.00,WeatherDisplay:10.37,2013-02-19 00:52:00,
2013-02-18 20:00:00,58.5,36.6,30.22,NW,316,2.3,0.0,44,0.00,FEW,,0.00,WeatherDisplay:10.37,2013-02-19 01:00:00,
2013-02-18 20:01:00,58.5,38.8,30.22,WSW,256,3.4,0.0,48,0.00,FEW,,0.00,WeatherDisplay:10.37,2013-02-19 01:01:00,
2013-02-18 20:05:00,58.5,37.7,30.22,WNW,291,2.3,0.0,46,0.00,FEW,,0.00,WeatherDisplay:10.37,2013-02-19 01:05:00,
2013-02-18 20:10:00,58.5,38.8,30.22,West,279,3.4,3.4,48,0.00,FEW,,0.00,WeatherDisplay:10.37,2013-02-19 01:10:00,
2013-02-18 20:16:00,58.6,39.0,30.22,NNW,330,0.0,0.0,48,0.00,FEW,,0.00,WeatherDisplay:10.37,2013-02-19 01:16:00,
2013-02-18 20:21:00,58.6,39.0,30.22,North,357,3.1,0.0,48,0.00,FEW,,0.00,WeatherDisplay:10.37,2013-02-19 01:21:00,
2013-02-18 20:31:00,58.3,38.1,30.19,North,357,3.4,3.4,47,0.00,FEW,,0.00,WeatherDisplay:10.37,2013-02-19 01:31:00,
2013-02-18 20:36:00,58.1,38.0,30.19,North,0,3.4,3.4,47,0.00,FEW,,0.00,WeatherDisplay:10.37,2013-02-19 01:36:00,
2013-02-18 20:46:00,57.9,38.3,30.22,NNE,19,0.0,0.0,48,0.00,FEW,,0.00,WeatherDisplay:10.37,2013-02-19 01:46:00,
2013-02-18 20:51:00,57.6,38.0,30.22,NNE,19,0.0,0.0,48,0.00,FEW,,0.00,WeatherDisplay:10.37,2013-02-19 01:51:00,
2013-02-18 21:00:00,56.7,37.2,30.22,East,87,0.0,0.0,48,0.00,FEW,,0.00,WeatherDisplay:10.37,2013-02-19 02:00:00,
2013-02-18 21:01:00,55.6,37.2,30.19,ESE,104,0.0,0.0,50,0.00,SCT,,0.00,WeatherDisplay:10.37,2013-02-19 02:01:00,
2013-02-18 21:05:00,56.1,37.2,30.22,ESE,104,0.0,0.0,49,0.00,SCT,,0.00,WeatherDisplay:10.37,2013-02-19 02:05:00,
2013-02-18 21:10:00,55.6,37.2,30.22,ESE,104,0.0,0.0,50,0.00,SCT,,0.00,WeatherDisplay:10.37,2013-02-19 02:10:00,
2013-02-18 21:16:00,55.0,36.7,30.19,ESE,104,0.0,0.0,50,0.00,SCT,,0.00,WeatherDisplay:10.37,2013-02-19 02:16:00,
2013-02-18 21:22:00,54.5,36.7,30.19,ESE,104,0.0,0.0,51,0.00,SCT,,0.00,WeatherDisplay:10.37,2013-02-19 02:22:00,
2013-02-18 21:31:00,54.0,36.7,30.22,ESE,104,0.0,0.0,52,0.00,SCT,,0.00,WeatherDisplay:10.37,2013-02-19 02:31:00,
2013-02-18 21:36:00,53.6,36.9,30.22,ESE,104,0.0,0.0,53,0.00,SCT,,0.00,WeatherDisplay:10.37,2013-02-19 02:36:00,
2013-02-18 21:46:00,52.9,37.1,30.19,SE,132,0.0,0.0,55,0.00,SCT,,0.00,WeatherDisplay:10.37,2013-02-19 02:46:00,
2013-02-18 21:51:00,52.7,37.0,30.19,ESE,121,0.0,0.0,55,0.00,SCT,,0.00,WeatherDisplay:10.37,2013-02-19 02:51:00,
2013-02-18 22:00:00,52.3,37.1,30.19,ESE,121,0.0,0.0,56,0.00,SCT,,0.00,WeatherDisplay:10.37,2013-02-19 03:00:00,
2013-02-18 22:01:00,52.0,37.2,30.19,ESE,121,0.0,0.0,57,0.00,CLR,,0.00,WeatherDisplay:10.37,2013-02-19 03:01:00,
2013-02-18 22:06:00,52.2,37.4,30.19,ESE,121,0.0,0.0,57,0.00,CLR,,0.00,WeatherDisplay:10.37,2013-02-19 03:06:00,
2013-02-18 22:11:00,52.0,37.2,30.19,ESE,121,0.0,0.0,57,0.00,CLR,,0.00,WeatherDisplay:10.37,2013-02-19 03:11:00,
2013-02-18 22:16:00,52.0,37.7,30.19,ESE,121,0.0,0.0,58,0.00,CLR,,0.00,WeatherDisplay:10.37,2013-02-19 03:16:00,
2013-02-18 22:21:00,51.8,37.5,30.19,ESE,121,0.0,0.0,58,0.00,CLR,,0.00,WeatherDisplay:10.37,2013-02-19 03:21:00,
2013-02-18 22:31:00,51.8,37.9,30.19,ESE,121,0.0,0.0,59,0.00,CLR,,0.00,WeatherDisplay:10.37,2013-02-19 03:31:00,
2013-02-18 22:36:00,51.8,37.9,30.19,ESE,121,0.0,0.0,59,0.00,CLR,,0.00,WeatherDisplay:10.37,2013-02-19 03:36:00,
2013-02-18 22:46:00,51.4,38.4,30.19,ENE,68,3.4,3.4,61,0.00,CLR,,0.00,WeatherDisplay:10.37,2013-02-19 03:46:00,
2013-02-18 22:51:00,51.4,38.4,30.19,East,98,0.0,0.0,61,0.00,CLR,,0.00,WeatherDisplay:10.37,2013-02-19 03:51:00,
2013-02-18 23:00:00,51.6,39.4,30.19,ESE,112,3.4,0.0,63,0.00,CLR,,0.00,WeatherDisplay:10.37,2013-02-19 04:00:00,
2013-02-18 23:01:00,52.2,40.3,30.16,East,97,3.1,3.1,64,0.00,CLR,,0.00,WeatherDisplay:10.37,2013-02-19 04:01:00,
2013-02-18 23:05:00,51.8,39.6,30.19,ESE,102,3.6,3.6,63,0.00,CLR,,0.00,WeatherDisplay:10.37,2013-02-19 04:05:00,
2013-02-18 23:10:00,52.2,40.3,30.19,SE,127,2.3,0.0,64,0.00,CLR,,0.00,WeatherDisplay:10.37,2013-02-19 04:10:00,
2013-02-18 23:16:00,52.7,41.7,30.16,ESE,121,3.6,3.6,66,0.00,CLR,,0.00,WeatherDisplay:10.37,2013-02-19 04:16:00,
2013-02-18 23:21:00,53.2,42.2,30.16,SE,129,4.6,4.6,66,0.00,CLR,,0.00,WeatherDisplay:10.37,2013-02-19 04:21:00,
2013-02-18 23:31:00,54.3,43.2,30.16,ESE,119,3.4,3.4,66,0.00,CLR,,0.00,WeatherDisplay:10.37,2013-02-19 04:31:00,
2013-02-18 23:36:00,54.9,43.7,30.16,ESE,114,2.7,0.0,66,0.00,CLR,,0.00,WeatherDisplay:10.37,2013-02-19 04:36:00,
2013-02-18 23:46:00,55.4,43.8,30.16,South,170,3.4,3.4,65,0.00,CLR,,0.00,WeatherDisplay:10.37,2013-02-19 04:46:00,
2013-02-18 23:51:00,55.6,44.0,30.16,SE,124,3.4,0.0,65,0.00,CLR,,0.00,WeatherDisplay:10.37,2013-02-19 04:51:00,